Time;durP1;ratioP1;P1;durP2;ratioP2;P2;SDS_P1;SDS_P2;PMS_P1;PMS_P2;Temp;Humidity;BMP_temperature;BMP_pressure;BME280_temperature;BME280_humidity;BME280_pressure;Samples;Min_cycle;Max_cycle;Signal;HPM_P1;HPM_P2
2022/12/25 00:00:11;;;;;;;28.83;14.83;;;6.90;99.90;;;;;;5079543;28;20462;-70
2022/12/25 00:02:37;;;;;;;22.70;14.97;;;7.00;99.90;;;;;;5080335;28;20835;-68
2022/12/25 00:05:05;;;;;;;33.43;13.93;;;7.00;99.90;;;;;;5076716;28;20568;-71
2022/12/25 00:07:32;;;;;;;23.77;14.40;;;7.10;99.90;;;;;;5074868;28;20466;-69
2022/12/25 00:10:00;;;;;;;23.90;13.97;;;7.10;99.90;;;;;;5080264;28;20461;-69
2022/12/25 00:12:27;;;;;;;24.43;14.03;;;7.20;99.90;;;;;;5078249;28;20490;-71
2022/12/25 00:14:54;;;;;;;18.20;13.80;;;7.20;99.90;;;;;;5086003;28;20466;-70
2022/12/25 00:17:22;;;;;;;29.87;13.70;;;7.30;99.90;;;;;;5086164;28;21043;-71
2022/12/25 00:19:48;;;;;;;29.93;13.73;;;7.40;99.90;;;;;;5077461;28;20461;-71
2022/12/25 00:22:15;;;;;;;19.07;13.93;;;7.50;99.90;;;;;;5072920;28;20461;-70
2022/12/25 00:24:42;;;;;;;22.90;13.13;;;7.60;99.90;;;;;;5078796;28;20995;-69
2022/12/25 00:27:09;;;;;;;16.23;14.03;;;7.60;99.90;;;;;;5074824;28;20866;-70
2022/12/25 00:29:36;;;;;;;21.30;12.87;;;7.60;99.90;;;;;;5071553;28;20465;-70
2022/12/25 00:32:03;;;;;;;19.40;14.10;;;7.70;99.90;;;;;;5077500;28;20710;-70
2022/12/25 00:34:31;;;;;;;24.37;14.17;;;7.70;99.90;;;;;;5083967;28;20462;-69
2022/12/25 00:36:58;;;;;;;16.50;13.77;;;7.80;99.90;;;;;;5081066;28;20585;-70
2022/12/25 00:39:25;;;;;;;18.43;14.20;;;7.80;99.90;;;;;;5079012;28;20696;-69
2022/12/25 00:44:36;;;;;;;16.60;12.77;;;7.90;99.90;;;;;;5080142;28;20483;-71
2022/12/25 00:47:03;;;;;;;18.97;12.60;;;7.90;99.90;;;;;;5079667;28;20467;-68
2022/12/25 00:49:32;;;;;;;14.90;12.57;;;8.00;99.90;;;;;;5079750;28;20521;-70
2022/12/25 00:51:59;;;;;;;16.40;12.40;;;8.10;99.90;;;;;;5076825;28;21011;-68
2022/12/25 00:54:26;;;;;;;13.90;12.20;;;8.00;99.90;;;;;;5074065;28;20976;-68
2022/12/25 00:56:53;;;;;;;12.53;11.30;;;8.10;99.90;;;;;;5075698;28;20848;-70
2022/12/25 00:59:20;;;;;;;21.30;12.67;;;8.10;99.90;;;;;;5080560;28;20829;-70
2022/12/25 01:01:47;;;;;;;18.17;13.20;;;8.10;99.90;;;;;;5081380;28;20486;-70
2022/12/25 01:04:14;;;;;;;21.83;12.60;;;8.20;99.90;;;;;;5079279;28;20555;-70
2022/12/25 01:06:42;;;;;;;13.47;12.17;;;8.20;99.90;;;;;;5077649;28;20462;-71
2022/12/25 01:11:53;;;;;;;14.00;11.60;;;8.30;99.90;;;;;;5078238;28;20482;-69
2022/12/25 01:14:21;;;;;;;16.90;12.73;;;8.40;99.90;;;;;;5079616;28;20461;-71
2022/12/25 01:16:48;;;;;;;21.90;12.70;;;8.30;99.90;;;;;;5076251;28;20471;-70
2022/12/25 01:19:14;;;;;;;17.90;11.77;;;8.30;99.90;;;;;;5082467;28;20474;-69
2022/12/25 01:21:42;;;;;;;17.63;12.23;;;8.30;99.90;;;;;;5086410;28;20452;-71
2022/12/25 01:24:09;;;;;;;23.47;13.50;;;8.30;99.90;;;;;;5071079;28;20991;-71
2022/12/25 01:26:36;;;;;;;20.47;12.50;;;8.30;99.90;;;;;;5070690;28;20826;-70
2022/12/25 01:29:03;;;;;;;13.60;12.17;;;8.30;99.90;;;;;;5078888;28;20458;-70
2022/12/25 01:31:31;;;;;;;28.97;13.17;;;8.30;99.90;;;;;;5077950;28;20490;-69
2022/12/25 01:33:57;;;;;;;15.27;12.00;;;8.20;99.90;;;;;;5080843;28;20942;-68
2022/12/25 01:36:26;;;;;;;21.77;13.90;;;8.20;99.90;;;;;;5073494;28;20450;-70
2022/12/25 01:38:54;;;;;;;25.23;11.37;;;8.20;99.90;;;;;;5076481;28;21044;-71
2022/12/25 01:41:23;;;;;;;26.27;13.50;;;8.20;99.90;;;;;;5079168;28;21230;-70
2022/12/25 01:44:00;;;;;;;18.43;12.43;;;8.20;99.90;;;;;;5077797;28;20463;-71
2022/12/25 01:46:27;;;;;;;19.17;11.53;;;8.20;99.90;;;;;;5087567;28;20953;-69
2022/12/25 01:48:57;;;;;;;18.23;11.43;;;8.20;99.90;;;;;;5081350;28;20466;-69
2022/12/25 01:51:28;;;;;;;23.67;12.10;;;8.20;99.90;;;;;;5077528;28;20482;-70
2022/12/25 01:53:59;;;;;;;21.30;11.90;;;8.20;99.90;;;;;;5076335;28;20482;-71
2022/12/25 01:56:29;;;;;;;19.97;11.40;;;8.10;99.90;;;;;;5074709;28;20465;-68
2022/12/25 01:58:57;;;;;;;17.40;11.40;;;8.10;99.90;;;;;;5081254;28;20890;-71
2022/12/25 02:01:23;;;;;;;29.20;10.93;;;8.10;99.90;;;;;;5082885;28;20531;-71
2022/12/25 02:03:51;;;;;;;23.93;11.70;;;8.10;99.90;;;;;;5081659;28;20485;-68
2022/12/25 02:06:18;;;;;;;20.23;12.60;;;8.20;99.90;;;;;;5079089;28;20461;-71
2022/12/25 02:08:45;;;;;;;21.80;11.37;;;8.20;99.90;;;;;;5079284;28;20696;-70
2022/12/25 02:11:55;;;;;;;20.90;11.57;;;8.20;99.90;;;;;;5083517;28;22518;-71
2022/12/25 02:14:00;;;;;;;22.27;11.70;;;8.20;99.90;;;;;;5075781;28;21032;-68
2022/12/25 02:16:33;;;;;;;34.27;12.70;;;8.20;99.90;;;;;;5085538;28;20497;-72
2022/12/25 02:19:09;;;;;;;13.73;11.17;;;8.20;99.90;;;;;;5078505;28;20458;-68
2022/12/25 02:21:56;;;;;;;28.70;11.33;;;8.30;99.90;;;;;;5080323;28;20458;-69
2022/12/25 02:24:41;;;;;;;14.90;10.93;;;8.30;99.90;;;;;;5076533;28;20470;-72
2022/12/25 02:27:17;;;;;;;13.57;10.70;;;8.30;99.90;;;;;;5090504;28;21001;-71
2022/12/25 02:29:53;;;;;;;15.63;11.47;;;8.40;99.90;;;;;;5084784;28;21008;-71
2022/12/25 02:32:26;;;;;;;15.73;10.77;;;8.40;99.90;;;;;;5075915;28;20481;-68
2022/12/25 02:34:59;;;;;;;23.03;11.77;;;8.40;99.90;;;;;;5077051;28;20466;-71
2022/12/25 02:37:30;;;;;;;20.13;11.60;;;8.40;99.90;;;;;;5079886;28;20604;-72
2022/12/25 02:40:01;;;;;;;20.77;11.77;;;8.50;99.90;;;;;;5088091;28;20461;-71
2022/12/25 03:07:43;;;;;;;18.87;9.80;;;8.60;99.90;;;;;;5078928;28;20464;-69
2022/12/25 03:13:04;;;;;;;18.60;9.63;;;8.60;99.90;;;;;;5092539;28;20484;-71
2022/12/25 03:18:25;;;;;;;21.50;10.33;;;8.70;99.90;;;;;;5082094;28;20537;-69
2022/12/25 03:31:10;;;;;;;21.60;11.83;;;8.80;99.90;;;;;;5077914;28;20463;-72
2022/12/25 03:32:03;;;;;;;15.50;10.10;;;8.80;99.90;;;;;;5090265;28;20538;-69
2022/12/25 04:36:21;;;;;;;13.30;9.00;;;8.40;99.90;;;;;;5079225;28;20461;-68
2022/12/25 04:38:48;;;;;;;12.80;8.97;;;8.30;99.90;;;;;;5080788;28;20474;-69
2022/12/25 04:41:17;;;;;;;17.70;8.97;;;8.40;99.90;;;;;;5075382;28;20963;-68
2022/12/25 04:43:44;;;;;;;12.67;8.90;;;8.40;99.90;;;;;;5078624;28;20979;-68
2022/12/25 04:46:12;;;;;;;21.97;9.67;;;8.30;99.90;;;;;;5081241;28;21027;-69
2022/12/25 04:48:39;;;;;;;12.13;8.63;;;8.30;99.90;;;;;;5075562;28;20470;-69
2022/12/25 04:51:14;;;;;;;12.77;9.00;;;8.30;99.90;;;;;;5078554;28;20720;-68
2022/12/25 04:53:41;;;;;;;9.50;8.70;;;8.30;99.90;;;;;;5077134;28;20539;-68
2022/12/25 04:56:08;;;;;;;16.87;10.33;;;8.30;99.90;;;;;;5080935;28;20466;-70
2022/12/25 04:58:36;;;;;;;14.80;9.60;;;8.40;99.90;;;;;;5087926;28;20950;-69
2022/12/25 05:01:04;;;;;;;24.00;11.37;;;8.40;99.90;;;;;;5077866;28;20938;-68
2022/12/25 05:03:32;;;;;;;12.13;8.63;;;8.50;99.90;;;;;;5076203;28;20465;-68
2022/12/25 05:06:00;;;;;;;10.30;9.17;;;8.40;99.90;;;;;;5076344;28;20484;-68
2022/12/25 05:08:28;;;;;;;18.00;9.57;;;8.40;99.90;;;;;;5075472;28;21048;-68
2022/12/25 05:10:56;;;;;;;12.20;9.20;;;8.50;99.90;;;;;;5085196;28;20470;-70
2022/12/25 05:13:23;;;;;;;17.93;9.00;;;8.50;99.90;;;;;;5084072;28;20506;-69
2022/12/25 05:15:52;;;;;;;15.47;8.30;;;8.50;99.90;;;;;;5073392;28;20548;-69
2022/12/25 05:18:19;;;;;;;15.07;8.70;;;8.50;99.90;;;;;;5083461;28;20515;-69
2022/12/25 05:20:53;;;;;;;14.33;8.17;;;8.50;99.90;;;;;;5080920;28;20486;-68
2022/12/25 05:23:21;;;;;;;14.13;8.83;;;8.50;99.90;;;;;;5077423;28;20496;-70
2022/12/25 05:25:48;;;;;;;12.47;8.87;;;8.40;99.90;;;;;;5092366;28;20453;-69
2022/12/25 05:28:15;;;;;;;14.63;8.70;;;8.30;99.90;;;;;;5085793;28;20976;-68
2022/12/25 05:30:43;;;;;;;11.10;8.97;;;8.30;99.90;;;;;;5082268;28;20465;-68
2022/12/25 05:33:11;;;;;;;17.20;9.80;;;8.30;99.90;;;;;;5087418;28;20494;-69
2022/12/25 05:35:40;;;;;;;19.33;9.90;;;8.30;99.90;;;;;;5079008;28;20461;-69
2022/12/25 05:38:08;;;;;;;18.30;8.70;;;8.30;99.90;;;;;;5088073;28;20467;-69
2022/12/25 05:40:38;;;;;;;25.13;8.70;;;8.30;99.90;;;;;;5087850;28;20480;-69
2022/12/25 05:43:05;;;;;;;37.83;10.07;;;8.30;99.90;;;;;;5090856;28;20468;-68
2022/12/25 05:45:32;;;;;;;23.57;10.30;;;8.40;99.90;;;;;;5086083;28;20795;-69
2022/12/25 05:47:59;;;;;;;23.60;8.83;;;8.40;99.90;;;;;;5078798;28;20462;-69
2022/12/25 05:50:27;;;;;;;16.73;9.10;;;8.40;99.90;;;;;;5087656;28;20849;-68
2022/12/25 05:52:54;;;;;;;21.03;8.40;;;8.50;99.90;;;;;;5087492;28;21035;-69
2022/12/25 05:55:21;;;;;;;18.50;8.50;;;8.50;99.90;;;;;;5085695;28;20506;-68
2022/12/25 05:57:48;;;;;;;15.90;8.83;;;8.50;99.90;;;;;;5082589;28;20990;-69
2022/12/25 06:00:16;;;;;;;23.53;7.80;;;8.50;99.90;;;;;;5087502;28;20952;-69
2022/12/25 06:02:43;;;;;;;21.73;8.83;;;8.50;99.90;;;;;;5089963;28;20486;-69
2022/12/25 06:05:10;;;;;;;28.30;9.00;;;8.50;99.90;;;;;;5080812;28;20536;-68
2022/12/25 06:07:38;;;;;;;15.93;8.10;;;8.50;99.90;;;;;;5080294;28;20485;-68
2022/12/25 06:10:06;;;;;;;14.93;7.70;;;8.60;99.90;;;;;;5084494;28;20867;-69
2022/12/25 06:12:33;;;;;;;11.70;7.60;;;8.70;99.90;;;;;;5089961;28;20493;-69
2022/12/25 06:15:01;;;;;;;14.70;8.47;;;8.60;99.90;;;;;;5091115;28;20465;-69
2022/12/25 06:17:27;;;;;;;23.70;8.90;;;8.70;99.90;;;;;;5089217;28;20471;-69
2022/12/25 06:19:54;;;;;;;11.37;7.90;;;8.70;99.90;;;;;;5084905;28;20469;-69
2022/12/25 06:22:22;;;;;;;10.00;7.53;;;8.70;99.90;;;;;;5080472;28;20559;-69
2022/12/25 06:24:50;;;;;;;10.20;9.20;;;8.80;99.90;;;;;;5086839;28;20894;-69
2022/12/25 06:27:17;;;;;;;17.73;8.57;;;8.80;99.90;;;;;;5097022;28;20457;-70
2022/12/25 06:29:44;;;;;;;26.60;9.67;;;8.80;99.90;;;;;;5091712;28;20452;-69
2022/12/25 06:32:11;;;;;;;25.77;9.47;;;8.80;99.90;;;;;;5087838;28;20477;-69
2022/12/25 06:34:38;;;;;;;23.40;9.27;;;8.70;99.90;;;;;;5081699;28;20494;-71
2022/12/25 06:37:05;;;;;;;24.83;8.07;;;8.80;99.90;;;;;;5083431;28;20469;-72
2022/12/25 06:39:32;;;;;;;17.80;9.43;;;8.80;99.90;;;;;;5087312;28;20973;-71
2022/12/25 06:42:00;;;;;;;25.50;8.73;;;8.80;99.90;;;;;;5095829;28;20938;-70
2022/12/25 06:44:27;;;;;;;26.13;9.90;;;8.80;99.90;;;;;;5077899;28;20474;-69
2022/12/25 06:46:54;;;;;;;21.03;9.20;;;8.80;99.90;;;;;;5080481;28;20465;-72
2022/12/25 06:49:21;;;;;;;21.13;8.23;;;8.80;99.90;;;;;;5078920;28;20466;-70
2022/12/25 06:51:48;;;;;;;21.07;8.57;;;8.90;99.90;;;;;;5081957;28;20467;-72
2022/12/25 06:54:15;;;;;;;16.07;9.33;;;8.90;99.90;;;;;;5077030;28;20888;-71
2022/12/25 06:56:42;;;;;;;25.03;8.73;;;8.90;99.90;;;;;;5085444;28;20459;-69
2022/12/25 06:59:11;;;;;;;15.03;9.17;;;9.00;99.90;;;;;;5089024;28;20463;-71
2022/12/25 07:01:43;;;;;;;21.43;8.20;;;9.00;99.90;;;;;;5084095;28;20968;-70
2022/12/25 07:04:15;;;;;;;16.87;7.87;;;9.00;99.90;;;;;;5075478;28;20482;-70
2022/12/25 07:06:42;;;;;;;16.77;8.60;;;8.90;99.90;;;;;;5077275;28;20468;-72
2022/12/25 07:09:09;;;;;;;11.33;8.23;;;9.00;99.90;;;;;;5077500;28;20897;-71
2022/12/25 07:11:36;;;;;;;12.40;7.80;;;8.90;99.90;;;;;;5082093;28;20521;-72
2022/12/25 07:14:02;;;;;;;14.40;8.93;;;8.90;99.90;;;;;;5085288;28;20493;-68
2022/12/25 07:16:30;;;;;;;12.83;8.70;;;8.90;99.90;;;;;;5079715;28;20522;-72
2022/12/25 07:18:59;;;;;;;16.60;8.97;;;8.90;99.90;;;;;;5084436;28;20474;-71
2022/12/25 07:21:27;;;;;;;16.83;8.47;;;8.90;99.90;;;;;;5076586;28;21049;-69
2022/12/25 07:23:54;;;;;;;20.73;8.20;;;8.90;99.90;;;;;;5075687;28;20965;-72
2022/12/25 07:26:21;;;;;;;18.20;7.50;;;8.90;99.90;;;;;;5086032;28;20461;-69
2022/12/25 07:28:48;;;;;;;27.33;7.90;;;8.80;99.90;;;;;;5089572;28;20467;-70
2022/12/25 07:31:17;;;;;;;15.67;7.40;;;8.90;99.90;;;;;;5084061;28;20470;-72
2022/12/25 07:33:45;;;;;;;15.30;8.50;;;8.80;99.90;;;;;;5083712;28;20496;-70
2022/12/25 07:36:14;;;;;;;22.90;8.20;;;8.80;99.90;;;;;;5077996;28;20871;-71
2022/12/25 07:38:41;;;;;;;14.80;7.63;;;8.80;99.90;;;;;;5086275;28;20862;-69
2022/12/25 07:41:10;;;;;;;13.00;7.27;;;8.70;99.90;;;;;;5083967;28;20462;-71
2022/12/25 07:43:37;;;;;;;17.67;8.10;;;8.80;99.90;;;;;;5075954;28;20458;-72
2022/12/25 07:46:04;;;;;;;21.13;7.50;;;8.90;99.90;;;;;;5086281;28;20857;-70
2022/12/25 07:48:31;;;;;;;13.07;7.50;;;8.90;99.90;;;;;;5074380;28;20451;-70
2022/12/25 07:51:04;;;;;;;22.17;7.67;;;9.00;99.90;;;;;;5079512;28;20450;-70
2022/12/25 07:53:31;;;;;;;15.00;8.03;;;9.10;99.90;;;;;;5073173;28;21015;-69
2022/12/25 07:56:00;;;;;;;15.37;8.37;;;9.00;99.90;;;;;;5082484;28;20968;-69
2022/12/25 07:58:28;;;;;;;12.57;6.70;;;9.00;99.90;;;;;;5091547;28;20462;-70
2022/12/25 08:01:01;;;;;;;7.10;6.50;;;9.00;99.90;;;;;;5085379;28;20485;-69
2022/12/25 08:03:28;;;;;;;10.50;7.03;;;9.00;99.90;;;;;;5081582;28;20518;-69
2022/12/25 08:05:58;;;;;;;18.63;6.60;;;9.10;99.90;;;;;;5082731;28;20839;-69
2022/12/25 08:08:26;;;;;;;20.70;6.60;;;9.10;99.90;;;;;;5082681;28;21078;-69
2022/12/25 08:10:54;;;;;;;19.27;7.03;;;9.10;99.90;;;;;;5078512;28;20471;-69
2022/12/25 08:13:22;;;;;;;22.23;6.40;;;9.10;99.90;;;;;;5084579;28;21051;-69
2022/12/25 08:15:50;;;;;;;14.77;7.20;;;9.10;99.90;;;;;;5077187;28;20567;-69
2022/12/25 08:18:17;;;;;;;11.13;5.93;;;9.10;99.90;;;;;;5085315;28;20463;-69
2022/12/25 08:20:45;;;;;;;12.23;6.80;;;9.20;99.90;;;;;;5093928;28;20834;-69
2022/12/25 08:23:14;;;;;;;9.13;6.50;;;9.20;99.90;;;;;;5085779;28;21338;-73
2022/12/25 08:25:42;;;;;;;11.57;6.37;;;9.20;99.90;;;;;;5084598;28;20463;-70
2022/12/25 08:28:09;;;;;;;10.70;6.00;;;9.30;99.90;;;;;;5075546;28;20966;-69
2022/12/25 08:30:38;;;;;;;6.87;6.17;;;9.30;99.90;;;;;;5078027;28;20462;-69
2022/12/25 08:33:05;;;;;;;6.50;6.00;;;9.40;99.90;;;;;;5085744;28;20518;-70
2022/12/25 08:35:34;;;;;;;11.90;6.80;;;9.40;99.90;;;;;;5077898;28;20473;-69
2022/12/25 08:38:00;;;;;;;9.53;5.93;;;9.50;99.90;;;;;;5067655;28;20462;-69
2022/12/25 08:40:28;;;;;;;11.93;6.83;;;9.60;99.90;;;;;;5069271;28;20980;-69
2022/12/25 08:42:57;;;;;;;6.20;5.60;;;9.60;99.90;;;;;;5084656;28;20555;-69
2022/12/25 08:45:24;;;;;;;9.47;5.90;;;9.60;99.90;;;;;;5083044;28;20462;-70
2022/12/25 08:47:54;;;;;;;9.53;6.93;;;9.60;99.90;;;;;;5080923;28;20461;-71
2022/12/25 08:50:22;;;;;;;85.43;7.50;;;9.60;99.90;;;;;;5079835;28;20554;-71
2022/12/25 08:52:49;;;;;;;18.03;12.70;;;9.60;99.90;;;;;;5071085;28;20466;-69
2022/12/25 08:55:16;;;;;;;21.20;19.53;;;9.60;99.90;;;;;;5076877;28;20462;-70
2022/12/25 08:57:43;;;;;;;22.40;19.87;;;9.60;99.90;;;;;;5079786;28;20784;-69
2022/12/25 09:00:13;;;;;;;21.63;18.80;;;9.60;99.90;;;;;;5082014;28;20470;-70
2022/12/25 09:02:40;;;;;;;20.40;18.90;;;9.50;99.90;;;;;;5089424;28;20591;-69
2022/12/25 09:05:08;;;;;;;21.43;19.43;;;9.50;99.90;;;;;;5087833;28;20948;-70
2022/12/25 09:07:35;;;;;;;20.47;18.80;;;9.50;99.90;;;;;;5089293;28;20450;-69
2022/12/25 09:10:02;;;;;;;20.23;18.70;;;9.50;99.90;;;;;;5087888;28;20549;-69
2022/12/25 09:12:29;;;;;;;21.50;19.87;;;9.60;99.90;;;;;;5089440;28;20449;-68
2022/12/25 09:14:56;;;;;;;23.03;20.90;;;9.60;99.90;;;;;;5089945;28;20539;-69
2022/12/25 09:17:24;;;;;;;21.60;19.80;;;9.70;99.90;;;;;;5088088;28;20956;-70
2022/12/25 09:19:51;;;;;;;17.37;15.80;;;9.70;99.90;;;;;;5088748;28;20476;-71
2022/12/25 09:22:18;;;;;;;18.77;17.03;;;9.70;99.90;;;;;;5088434;28;20937;-70
2022/12/25 09:24:46;;;;;;;27.83;15.40;;;9.70;99.90;;;;;;5089904;28;20458;-71
2022/12/25 09:27:12;;;;;;;67.03;16.10;;;9.60;99.90;;;;;;5089970;28;20465;-71
2022/12/25 09:29:39;;;;;;;26.10;15.00;;;9.70;99.90;;;;;;5087552;28;20553;-72
2022/12/25 09:32:07;;;;;;;31.60;15.13;;;9.60;99.90;;;;;;5087842;28;20452;-71
2022/12/25 09:34:35;;;;;;;15.93;14.43;;;9.60;99.90;;;;;;5088198;28;20584;-71
2022/12/25 09:37:02;;;;;;;18.93;14.73;;;9.60;99.90;;;;;;5088982;28;20551;-71
2022/12/25 09:39:29;;;;;;;29.27;13.63;;;9.60;99.90;;;;;;5089169;28;20504;-71
2022/12/25 09:42:01;;;;;;;19.30;12.67;;;9.60;99.90;;;;;;5088744;28;20461;-71
2022/12/25 09:44:31;;;;;;;14.87;12.60;;;9.70;99.90;;;;;;5088429;28;20953;-71
2022/12/25 09:47:01;;;;;;;43.60;14.80;;;9.70;99.90;;;;;;5087448;28;20883;-72
2022/12/25 09:49:35;;;;;;;15.80;13.03;;;9.70;99.90;;;;;;5089300;28;20454;-72
2022/12/25 09:52:09;;;;;;;13.33;12.23;;;9.80;99.90;;;;;;5090334;28;20472;-72
2022/12/25 09:54:42;;;;;;;13.60;12.60;;;9.80;99.90;;;;;;5088298;28;20490;-72
2022/12/25 09:57:12;;;;;;;14.87;13.77;;;9.80;99.90;;;;;;5087314;28;20855;-73
2022/12/25 09:59:39;;;;;;;14.87;13.30;;;9.70;99.90;;;;;;5086201;28;20508;-70
2022/12/25 10:02:42;;;;;;;14.03;12.50;;;9.70;99.90;;;;;;5084117;28;20482;-71
2022/12/25 10:05:27;;;;;;;12.90;12.07;;;9.70;99.90;;;;;;5079084;28;20490;-70
2022/12/25 10:08:03;;;;;;;13.33;12.10;;;9.60;99.90;;;;;;5082610;28;20470;-71
2022/12/25 10:10:47;;;;;;;13.93;12.67;;;9.70;99.90;;;;;;5084765;28;20457;-70
2022/12/25 10:13:36;;;;;;;13.70;12.53;;;9.70;99.90;;;;;;5087664;28;20957;-72
2022/12/25 10:16:12;;;;;;;14.00;12.80;;;9.80;99.90;;;;;;5075284;28;20451;-72
2022/12/25 10:19:02;;;;;;;13.90;12.60;;;9.80;99.90;;;;;;5081571;28;20462;-71
2022/12/25 10:21:30;;;;;;;13.47;12.00;;;9.80;99.90;;;;;;5091020;28;20955;-72
2022/12/25 10:24:06;;;;;;;13.83;12.73;;;9.90;99.90;;;;;;5087927;28;20468;-71
2022/12/25 10:26:34;;;;;;;15.40;13.73;;;9.90;99.90;;;;;;5093946;28;20461;-71
2022/12/25 10:29:05;;;;;;;14.70;13.20;;;9.90;99.90;;;;;;5087981;28;20996;-71
2022/12/25 10:31:35;;;;;;;14.57;13.00;;;9.90;99.90;;;;;;5086689;28;20458;-72
2022/12/25 10:34:03;;;;;;;13.97;12.97;;;10.00;99.90;;;;;;5078431;28;20482;-72
2022/12/25 10:36:31;;;;;;;14.73;13.63;;;10.00;99.90;;;;;;5082269;28;20565;-71
2022/12/25 10:38:59;;;;;;;15.67;13.87;;;10.00;99.90;;;;;;5086323;28;20506;-71
2022/12/25 10:41:40;;;;;;;14.53;13.20;;;10.00;99.90;;;;;;5087647;28;20462;-70
2022/12/25 10:44:13;;;;;;;15.73;13.73;;;10.00;99.90;;;;;;5083600;28;20462;-70
2022/12/25 10:46:41;;;;;;;15.23;13.23;;;9.90;99.90;;;;;;5078369;28;20458;-71
2022/12/25 10:49:15;;;;;;;15.30;13.70;;;10.00;99.90;;;;;;5079270;28;20814;-71
2022/12/25 10:51:42;;;;;;;15.87;13.23;;;10.00;99.90;;;;;;5085701;28;20461;-73
2022/12/25 10:54:21;;;;;;;13.97;12.73;;;10.10;99.90;;;;;;5089408;28;21022;-71
2022/12/25 10:56:58;;;;;;;16.10;13.60;;;10.10;99.90;;;;;;5089032;28;20465;-71
2022/12/25 10:59:26;;;;;;;13.50;12.70;;;10.10;99.90;;;;;;5091759;28;20952;-73
2022/12/25 11:01:54;;;;;;;14.07;13.07;;;10.10;99.90;;;;;;5080065;28;20474;-70
2022/12/25 11:04:24;;;;;;;14.13;13.20;;;10.00;99.90;;;;;;5079532;28;21008;-70
2022/12/25 11:07:07;;;;;;;15.90;14.23;;;10.10;99.90;;;;;;5078295;28;20977;-71
2022/12/25 11:09:36;;;;;;;14.90;13.60;;;10.10;99.90;;;;;;5075032;28;20887;-71
2022/12/25 11:12:03;;;;;;;15.37;13.93;;;10.30;99.90;;;;;;5082738;28;20466;-71
2022/12/25 11:14:30;;;;;;;15.70;14.60;;;10.20;99.90;;;;;;5080707;28;21067;-71
2022/12/25 11:17:09;;;;;;;16.07;14.50;;;10.20;99.90;;;;;;5075884;28;20489;-71
2022/12/25 11:19:36;;;;;;;15.50;14.20;;;10.20;99.90;;;;;;5077416;28;20462;-73
2022/12/25 11:22:05;;;;;;;14.70;13.70;;;10.30;99.90;;;;;;5083874;28;20462;-71
2022/12/25 11:24:35;;;;;;;15.43;14.17;;;10.30;99.90;;;;;;5083573;28;20462;-71
2022/12/25 11:27:06;;;;;;;15.70;14.50;;;10.30;99.90;;;;;;5082947;28;20615;-72
2022/12/25 11:29:39;;;;;;;14.23;13.33;;;10.20;99.90;;;;;;5082352;28;20464;-70
2022/12/25 11:32:16;;;;;;;15.60;14.10;;;10.20;99.90;;;;;;5087031;28;20470;-72
2022/12/25 11:34:45;;;;;;;17.17;14.30;;;10.10;99.90;;;;;;5081557;28;20489;-70
2022/12/25 11:37:16;;;;;;;16.60;14.67;;;10.10;99.90;;;;;;5080718;28;20469;-72
2022/12/25 11:39:44;;;;;;;14.80;13.80;;;10.10;99.90;;;;;;5076293;28;20455;-71
2022/12/25 11:42:18;;;;;;;15.70;13.73;;;10.10;99.90;;;;;;5084921;28;20463;-72
2022/12/25 11:44:51;;;;;;;16.30;15.23;;;10.30;99.90;;;;;;5075912;28;20470;-70
2022/12/25 11:47:24;;;;;;;16.23;14.00;;;10.20;99.90;;;;;;5091657;28;20464;-71
2022/12/25 11:49:56;;;;;;;15.57;14.23;;;10.20;99.90;;;;;;5073003;28;20525;-71
2022/12/25 11:52:24;;;;;;;15.33;14.10;;;10.30;99.90;;;;;;5072488;28;20820;-71
2022/12/25 11:54:57;;;;;;;17.37;16.17;;;10.20;99.90;;;;;;5076872;28;20907;-71
2022/12/25 11:57:27;;;;;;;16.83;15.60;;;10.10;99.90;;;;;;5082275;28;20474;-71
2022/12/25 11:59:59;;;;;;;16.37;15.00;;;10.20;99.90;;;;;;5076680;28;20462;-70
2022/12/25 12:02:32;;;;;;;18.10;16.50;;;10.20;99.90;;;;;;5079830;28;20856;-71
2022/12/25 12:05:09;;;;;;;23.97;15.63;;;10.30;99.90;;;;;;5086336;28;21020;-70
2022/12/25 12:07:37;;;;;;;18.70;17.30;;;10.30;99.90;;;;;;5078286;28;20462;-70
2022/12/25 12:10:14;;;;;;;16.83;15.33;;;10.30;99.90;;;;;;5083479;28;21158;-70
2022/12/25 12:12:52;;;;;;;16.73;15.50;;;10.40;99.90;;;;;;5087076;28;20462;-70
2022/12/25 12:15:28;;;;;;;17.20;15.90;;;10.40;99.90;;;;;;5081095;28;20556;-70
2022/12/25 12:18:07;;;;;;;16.97;15.67;;;10.40;99.90;;;;;;5077634;28;20557;-71
2022/12/25 12:20:35;;;;;;;15.70;14.70;;;10.40;99.90;;;;;;5079718;28;20472;-71
2022/12/25 12:23:10;;;;;;;16.40;15.13;;;10.30;99.90;;;;;;5080019;28;20837;-71
2022/12/25 12:25:40;;;;;;;17.50;15.90;;;10.30;99.90;;;;;;5080023;28;20495;-70
2022/12/25 12:28:20;;;;;;;16.73;15.37;;;10.40;99.90;;;;;;5081196;28;20467;-70
2022/12/25 12:30:57;;;;;;;17.60;16.17;;;10.40;99.90;;;;;;5080169;28;20458;-71
2022/12/25 12:33:29;;;;;;;19.20;17.33;;;10.50;99.90;;;;;;5073086;28;20560;-70
2022/12/25 12:35:56;;;;;;;18.70;17.27;;;10.50;99.90;;;;;;5074520;28;20565;-71
2022/12/25 12:38:24;;;;;;;20.00;18.43;;;10.40;99.90;;;;;;5077831;28;20457;-72
2022/12/25 12:40:55;;;;;;;17.37;16.10;;;10.50;99.90;;;;;;5078968;28;20466;-70
2022/12/25 12:43:32;;;;;;;17.67;16.37;;;10.50;99.90;;;;;;5079516;28;20455;-72
2022/12/25 12:46:04;;;;;;;18.60;17.10;;;10.60;99.90;;;;;;5083279;28;20453;-70
2022/12/25 12:48:39;;;;;;;17.43;16.30;;;10.60;99.90;;;;;;5101143;28;20461;-71
2022/12/25 12:51:08;;;;;;;19.40;17.90;;;10.60;99.90;;;;;;5081667;28;20493;-70
2022/12/25 12:53:38;;;;;;;18.73;17.33;;;10.70;99.90;;;;;;5086285;28;20806;-71
2022/12/25 12:56:16;;;;;;;18.27;16.97;;;10.60;99.90;;;;;;5076378;28;20493;-72
2022/12/25 12:58:48;;;;;;;19.80;16.53;;;10.70;99.90;;;;;;5077029;28;20470;-70
2022/12/25 13:01:38;;;;;;;19.10;17.50;;;10.70;99.90;;;;;;5082367;28;20488;-71
2022/12/25 13:04:27;;;;;;;17.20;15.87;;;10.70;99.90;;;;;;5082907;28;20509;-72
2022/12/25 13:07:00;;;;;;;18.10;16.70;;;10.70;99.90;;;;;;5086102;28;20466;-71
2022/12/25 13:09:44;;;;;;;18.30;16.90;;;10.80;99.90;;;;;;5073124;28;20471;-71
2022/12/25 13:12:14;;;;;;;23.57;16.67;;;10.80;99.90;;;;;;5074517;28;20465;-70
2022/12/25 13:14:45;;;;;;;19.20;17.67;;;10.80;99.90;;;;;;5079365;28;20523;-72
2022/12/25 13:17:17;;;;;;;18.80;17.50;;;10.80;99.90;;;;;;5079744;28;20465;-71
2022/12/25 13:19:44;;;;;;;20.87;17.83;;;10.80;99.90;;;;;;5073280;28;20494;-71
2022/12/25 13:22:23;;;;;;;19.33;17.67;;;10.80;99.90;;;;;;5076284;28;20841;-71
2022/12/25 13:24:56;;;;;;;20.90;19.20;;;10.80;99.90;;;;;;5076091;28;21017;-70
2022/12/25 13:27:25;;;;;;;20.03;18.33;;;10.80;99.90;;;;;;5066520;28;20904;-71
2022/12/25 13:29:52;;;;;;;20.87;19.20;;;10.80;99.90;;;;;;5076258;28;20458;-71
2022/12/25 13:32:23;;;;;;;20.00;18.20;;;10.90;99.90;;;;;;5075866;28;20906;-71
2022/12/25 13:34:51;;;;;;;19.87;18.40;;;10.80;99.90;;;;;;5074268;28;21030;-72
2022/12/25 13:37:20;;;;;;;20.87;18.83;;;10.80;99.90;;;;;;5075386;28;20478;-69
2022/12/25 13:39:52;;;;;;;22.07;20.20;;;10.90;99.90;;;;;;5076600;28;20551;-71
2022/12/25 13:42:21;;;;;;;23.43;21.13;;;10.80;99.90;;;;;;5073743;28;20923;-71
2022/12/25 13:44:53;;;;;;;23.03;20.87;;;10.90;99.90;;;;;;5076806;28;20458;-71
2022/12/25 13:47:25;;;;;;;24.67;22.67;;;10.90;99.90;;;;;;5077703;28;20463;-71
2022/12/25 13:49:54;;;;;;;22.30;20.10;;;10.90;99.90;;;;;;5078316;28;20468;-71
2022/12/25 13:52:24;;;;;;;22.63;20.93;;;10.80;99.90;;;;;;5081393;28;20852;-70
2022/12/25 13:54:59;;;;;;;23.37;21.17;;;10.70;99.90;;;;;;5077231;28;20517;-71
2022/12/25 13:57:33;;;;;;;22.27;19.97;;;10.70;99.90;;;;;;5084610;28;20458;-70
2022/12/25 14:00:03;;;;;;;20.33;18.37;;;10.70;99.90;;;;;;5085505;28;20463;-71
2022/12/25 14:02:34;;;;;;;21.73;19.63;;;10.60;99.90;;;;;;5085082;28;20854;-73
2022/12/25 14:05:02;;;;;;;20.13;18.23;;;10.60;99.90;;;;;;5089915;28;20892;-70
2022/12/25 14:07:29;;;;;;;21.50;19.57;;;10.60;99.90;;;;;;5086529;28;20468;-70
2022/12/25 14:10:00;;;;;;;20.07;18.43;;;10.60;99.90;;;;;;5087229;28;20466;-71
2022/12/25 14:12:31;;;;;;;21.57;19.60;;;10.60;99.90;;;;;;5083196;28;20841;-71
2022/12/25 14:15:01;;;;;;;21.37;19.57;;;10.50;99.90;;;;;;5083575;28;20514;-71
2022/12/25 14:17:29;;;;;;;21.37;19.23;;;10.50;99.90;;;;;;5080949;28;20462;-70
2022/12/25 14:19:58;;;;;;;24.27;19.57;;;10.50;99.90;;;;;;5081901;28;20995;-70
2022/12/25 14:22:26;;;;;;;21.97;18.63;;;10.60;99.90;;;;;;5077860;28;20510;-71
2022/12/25 14:24:53;;;;;;;19.87;18.10;;;10.60;99.90;;;;;;5082755;28;20462;-71
2022/12/25 14:27:22;;;;;;;21.27;19.10;;;10.60;99.90;;;;;;5079489;28;20556;-71
2022/12/25 14:29:52;;;;;;;21.73;19.70;;;10.60;99.90;;;;;;5083543;28;20477;-70
2022/12/25 14:32:23;;;;;;;21.50;19.43;;;10.60;99.90;;;;;;5083479;28;20462;-70
2022/12/25 14:34:53;;;;;;;19.27;17.70;;;10.60;99.90;;;;;;5080146;28;20883;-71
2022/12/25 14:37:23;;;;;;;19.90;17.80;;;10.60;99.90;;;;;;5089903;28;21004;-70